sensor_id;sensor_type;location;lat;lon;timestamp;pressure;altitude;pressure_sealevel;temperature;humidity
51313;BME280;37397;53.226;10.400;2024-01-15T00:02:00;98911.88;;;3.91;75.91
51313;BME280;37397;53.226;10.400;2024-01-15T00:04:27;98880.72;;;3.86;75.56
51313;BME280;37397;53.226;10.400;2024-01-15T00:06:54;98902.13;;;3.92;75.67
51313;BME280;37397;53.226;10.400;2024-01-15T00:09:20;98897.44;;;3.89;75.56
51313;BME280;37397;53.226;10.400;2024-01-15T00:11:47;98847.19;;;3.63;75.79
51313;BME280;37397;53.226;10.400;2024-01-15T00:14:13;98886.66;;;3.88;75.63
51313;BME280;37397;53.226;10.400;2024-01-15T00:16:41;98856.78;;;3.81;75.65
51313;BME280;37397;53.226;10.400;2024-01-15T00:19:08;98859.88;;;3.83;75.75
51313;BME280;37397;53.226;10.400;2024-01-15T00:21:34;98863.50;;;3.83;75.39
51313;BME280;37397;53.226;10.400;2024-01-15T00:24:01;98850.84;;;3.79;75.38
51313;BME280;37397;53.226;10.400;2024-01-15T00:26:28;98844.09;;;3.76;75.33
51313;BME280;37397;53.226;10.400;2024-01-15T00:28:54;98845.19;;;3.79;75.60
51313;BME280;37397;53.226;10.400;2024-01-15T00:31:21;98836.94;;;3.75;75.52
51313;BME280;37397;53.226;10.400;2024-01-15T00:33:48;98850.56;;;3.77;75.46
51313;BME280;37397;53.226;10.400;2024-01-15T00:36:15;98842.56;;;3.75;75.29
51313;BME280;37397;53.226;10.400;2024-01-15T00:38:46;98826.63;;;3.72;75.44
51313;BME280;37397;53.226;10.400;2024-01-15T00:41:14;98845.25;;;3.70;75.32
51313;BME280;37397;53.226;10.400;2024-01-15T00:43:41;98852.75;;;3.73;75.28
51313;BME280;37397;53.226;10.400;2024-01-15T00:46:07;98845.25;;;3.70;75.35
51313;BME280;37397;53.226;10.400;2024-01-15T00:48:34;98837.28;;;3.68;75.36
51313;BME280;37397;53.226;10.400;2024-01-15T00:51:01;98831.22;;;3.60;75.39
51313;BME280;37397;53.226;10.400;2024-01-15T00:53:28;98836.72;;;3.64;75.51
51313;BME280;37397;53.226;10.400;2024-01-15T00:55:54;98832.19;;;3.57;75.41
51313;BME280;37397;53.226;10.400;2024-01-15T00:58:21;98841.38;;;3.67;75.61
51313;BME280;37397;53.226;10.400;2024-01-15T01:00:48;98819.94;;;3.60;75.69
51313;BME280;37397;53.226;10.400;2024-01-15T01:03:14;98817.44;;;3.62;75.56
51313;BME280;37397;53.226;10.400;2024-01-15T01:05:41;98816.50;;;3.65;75.48
51313;BME280;37397;53.226;10.400;2024-01-15T01:08:08;98820.56;;;3.64;75.71
51313;BME280;37397;53.226;10.400;2024-01-15T01:10:35;98787.06;;;3.57;75.45
51313;BME280;37397;53.226;10.400;2024-01-15T01:13:01;98806.47;;;3.64;75.61
51313;BME280;37397;53.226;10.400;2024-01-15T01:15:28;98765.59;;;3.45;75.57
51313;BME280;37397;53.226;10.400;2024-01-15T01:17:55;98778.63;;;3.57;75.97
51313;BME280;37397;53.226;10.400;2024-01-15T01:20:21;98777.06;;;3.56;75.55
51313;BME280;37397;53.226;10.400;2024-01-15T01:22:48;98783.78;;;3.59;75.91
51313;BME280;37397;53.226;10.400;2024-01-15T01:25:15;98799.72;;;3.62;75.77
51313;BME280;37397;53.226;10.400;2024-01-15T01:27:42;98796.44;;;3.63;75.93
51313;BME280;37397;53.226;10.400;2024-01-15T01:30:09;98782.44;;;3.54;75.89
51313;BME280;37397;53.226;10.400;2024-01-15T01:32:36;98786.44;;;3.62;75.79
51313;BME280;37397;53.226;10.400;2024-01-15T01:35:02;98779.22;;;3.61;75.48
51313;BME280;37397;53.226;10.400;2024-01-15T01:37:29;98796.44;;;3.63;75.54
51313;BME280;37397;53.226;10.400;2024-01-15T01:39:56;98785.72;;;3.53;75.52
51313;BME280;37397;53.226;10.400;2024-01-15T01:42:22;98780.66;;;3.57;75.73
51313;BME280;37397;53.226;10.400;2024-01-15T01:44:49;98771.72;;;3.58;75.67
51313;BME280;37397;53.226;10.400;2024-01-15T01:47:15;98760.44;;;3.58;75.60
51313;BME280;37397;53.226;10.400;2024-01-15T01:49:42;98778.44;;;3.61;75.70
51313;BME280;37397;53.226;10.400;2024-01-15T01:52:10;98769.38;;;3.57;75.73
51313;BME280;37397;53.226;10.400;2024-01-15T01:54:37;98762.69;;;3.54;75.60
51313;BME280;37397;53.226;10.400;2024-01-15T01:57:05;98769.19;;;3.60;76.08
51313;BME280;37397;53.226;10.400;2024-01-15T01:59:34;98744.88;;;3.48;75.87
51313;BME280;37397;53.226;10.400;2024-01-15T02:02:03;98778.34;;;3.55;75.73
51313;BME280;37397;53.226;10.400;2024-01-15T02:04:31;98767.66;;;3.59;75.46
51313;BME280;37397;53.226;10.400;2024-01-15T02:06:59;98750.13;;;3.55;75.60
51313;BME280;37397;53.226;10.400;2024-01-15T02:09:26;98746.34;;;3.58;75.65
51313;BME280;37397;53.226;10.400;2024-01-15T02:11:53;98737.97;;;3.49;75.60
51313;BME280;37397;53.226;10.400;2024-01-15T02:14:20;98748.59;;;3.54;75.46
51313;BME280;37397;53.226;10.400;2024-01-15T02:16:46;98743.91;;;3.51;75.78
51313;BME280;37397;53.226;10.400;2024-01-15T02:19:17;98752.94;;;3.55;75.55
51313;BME280;37397;53.226;10.400;2024-01-15T02:21:44;98738.09;;;3.55;75.71
51313;BME280;37397;53.226;10.400;2024-01-15T02:24:11;98734.09;;;3.46;75.63
51313;BME280;37397;53.226;10.400;2024-01-15T02:26:38;98734.19;;;3.52;75.75
51313;BME280;37397;53.226;10.400;2024-01-15T02:29:07;98734.50;;;3.54;75.67
51313;BME280;37397;53.226;10.400;2024-01-15T02:31:37;98732.03;;;3.47;75.71
51313;BME280;37397;53.226;10.400;2024-01-15T02:34:04;98722.69;;;3.41;75.64
51313;BME280;37397;53.226;10.400;2024-01-15T02:36:31;98738.28;;;3.51;75.54
51313;BME280;37397;53.226;10.400;2024-01-15T02:38:58;98718.22;;;3.49;75.68
51313;BME280;37397;53.226;10.400;2024-01-15T02:41:24;98684.38;;;3.19;75.81
51313;BME280;37397;53.226;10.400;2024-01-15T02:43:51;98720.16;;;3.43;75.65
51313;BME280;37397;53.226;10.400;2024-01-15T02:46:18;98730.78;;;3.48;75.78
51313;BME280;37397;53.226;10.400;2024-01-15T02:48:44;98722.69;;;3.41;75.76
51313;BME280;37397;53.226;10.400;2024-01-15T02:51:11;98717.06;;;3.41;75.52
51313;BME280;37397;53.226;10.400;2024-01-15T02:53:38;98727.97;;;3.48;75.61
51313;BME280;37397;53.226;10.400;2024-01-15T02:56:07;98725.16;;;3.48;75.82
51313;BME280;37397;53.226;10.400;2024-01-15T02:58:33;98722.97;;;3.43;75.96
51313;BME280;37397;53.226;10.400;2024-01-15T03:01:00;98707.13;;;3.31;75.75
51313;BME280;37397;53.226;10.400;2024-01-15T03:03:28;98715.59;;;3.45;75.63
51313;BME280;37397;53.226;10.400;2024-01-15T03:05:55;98698.00;;;3.36;75.64
51313;BME280;37397;53.226;10.400;2024-01-15T03:08:21;98730.47;;;3.46;75.86
51313;BME280;37397;53.226;10.400;2024-01-15T03:10:49;98725.22;;;3.39;75.89
51313;BME280;37397;53.226;10.400;2024-01-15T03:13:16;98715.81;;;3.42;75.99
51313;BME280;37397;53.226;10.400;2024-01-15T03:15:43;98733.00;;;3.44;76.06
51313;BME280;37397;53.226;10.400;2024-01-15T03:18:10;98746.22;;;3.38;76.06
51313;BME280;37397;53.226;10.400;2024-01-15T03:20:37;98744.00;;;3.42;75.90
51313;BME280;37397;53.226;10.400;2024-01-15T03:23:04;98742.72;;;3.43;76.10
51313;BME280;37397;53.226;10.400;2024-01-15T03:25:30;98758.09;;;3.42;75.87
51313;BME280;37397;53.226;10.400;2024-01-15T03:27:57;98739.59;;;3.41;75.76
51313;BME280;37397;53.226;10.400;2024-01-15T03:30:23;98726.19;;;3.36;76.10
51313;BME280;37397;53.226;10.400;2024-01-15T03:32:50;98729.28;;;3.38;75.96
51313;BME280;37397;53.226;10.400;2024-01-15T03:35:17;98732.44;;;3.40;75.87
51313;BME280;37397;53.226;10.400;2024-01-15T03:37:44;98732.44;;;3.40;76.02
51313;BME280;37397;53.226;10.400;2024-01-15T03:40:10;98730.88;;;3.39;76.17
51313;BME280;37397;53.226;10.400;2024-01-15T03:42:37;98729.91;;;3.42;76.14
51313;BME280;37397;53.226;10.400;2024-01-15T03:45:04;98742.13;;;3.39;76.06
51313;BME280;37397;53.226;10.400;2024-01-15T03:47:31;98766.53;;;3.42;75.85
51313;BME280;37397;53.226;10.400;2024-01-15T03:49:58;98735.53;;;3.42;75.97
51313;BME280;37397;53.226;10.400;2024-01-15T03:52:24;98711.13;;;3.39;75.85
51313;BME280;37397;53.226;10.400;2024-01-15T03:54:51;98735.72;;;3.38;75.85
51313;BME280;37397;53.226;10.400;2024-01-15T03:57:17;98746.81;;;3.42;76.17
51313;BME280;37397;53.226;10.400;2024-01-15T03:59:44;98743.38;;;3.38;76.19
51313;BME280;37397;53.226;10.400;2024-01-15T04:02:13;98719.78;;;3.35;76.08
51313;BME280;37397;53.226;10.400;2024-01-15T04:04:41;98746.81;;;3.42;76.14
51313;BME280;37397;53.226;10.400;2024-01-15T04:07:11;98741.50;;;3.20;75.95
51313;BME280;37397;53.226;10.400;2024-01-15T04:09:38;98740.75;;;3.19;76.38
51313;BME280;37397;53.226;10.400;2024-01-15T04:12:05;98744.63;;;3.22;76.21
51313;BME280;37397;53.226;10.400;2024-01-15T04:14:31;98763.44;;;3.40;76.32
51313;BME280;37397;53.226;10.400;2024-01-15T04:16:58;98761.69;;;3.42;76.29
51313;BME280;37397;53.226;10.400;2024-01-15T04:19:25;98768.59;;;3.41;76.11
51313;BME280;37397;53.226;10.400;2024-01-15T04:21:51;98747.28;;;3.25;76.48
51313;BME280;37397;53.226;10.400;2024-01-15T04:24:18;98743.78;;;3.31;76.23
51313;BME280;37397;53.226;10.400;2024-01-15T04:26:45;98756.09;;;3.33;76.35
51313;BME280;37397;53.226;10.400;2024-01-15T04:29:12;98748.31;;;3.28;76.34
51313;BME280;37397;53.226;10.400;2024-01-15T04:31:38;98740.34;;;3.26;76.03
51313;BME280;37397;53.226;10.400;2024-01-15T04:34:05;98754.09;;;3.34;76.08
51313;BME280;37397;53.226;10.400;2024-01-15T04:36:38;98758.75;;;3.37;76.15
51313;BME280;37397;53.226;10.400;2024-01-15T04:39:05;98750.31;;;3.37;76.34
51313;BME280;37397;53.226;10.400;2024-01-15T04:41:33;98751.56;;;3.36;76.40
51313;BME280;37397;53.226;10.400;2024-01-15T04:44:00;98740.47;;;3.32;76.42
51313;BME280;37397;53.226;10.400;2024-01-15T04:46:27;98762.44;;;3.43;76.38
51313;BME280;37397;53.226;10.400;2024-01-15T04:48:54;98747.59;;;3.42;76.30
51313;BME280;37397;53.226;10.400;2024-01-15T04:51:20;98742.50;;;3.32;76.04
51313;BME280;37397;53.226;10.400;2024-01-15T04:53:47;98754.00;;;3.43;76.41
51313;BME280;37397;53.226;10.400;2024-01-15T04:56:14;98760.91;;;3.42;76.39
51313;BME280;37397;53.226;10.400;2024-01-15T04:58:40;98758.28;;;3.38;76.17
51313;BME280;37397;53.226;10.400;2024-01-15T05:01:08;98750.31;;;3.37;76.04
51313;BME280;37397;53.226;10.400;2024-01-15T05:03:34;98759.06;;;3.39;76.17
51313;BME280;37397;53.226;10.400;2024-01-15T05:06:01;98760.97;;;3.33;76.21
51313;BME280;37397;53.226;10.400;2024-01-15T05:08:27;98760.97;;;3.33;76.34
51313;BME280;37397;53.226;10.400;2024-01-15T05:10:54;98755.94;;;3.37;76.06
51313;BME280;37397;53.226;10.400;2024-01-15T05:13:21;98740.56;;;3.38;76.31
51313;BME280;37397;53.226;10.400;2024-01-15T05:15:47;98751.28;;;3.34;76.11
51313;BME280;37397;53.226;10.400;2024-01-15T05:18:14;98748.94;;;3.32;76.24
51313;BME280;37397;53.226;10.400;2024-01-15T05:20:40;98743.50;;;3.28;76.23
51313;BME280;37397;53.226;10.400;2024-01-15T05:23:07;98753.00;;;3.31;75.99
51313;BME280;37397;53.226;10.400;2024-01-15T05:25:34;98760.78;;;3.36;76.26
51313;BME280;37397;53.226;10.400;2024-01-15T05:28:01;98751.94;;;3.28;76.18
51313;BME280;37397;53.226;10.400;2024-01-15T05:30:27;98734.50;;;3.15;76.20
51313;BME280;37397;53.226;10.400;2024-01-15T05:32:54;98765.66;;;3.36;76.36
51313;BME280;37397;53.226;10.400;2024-01-15T05:35:21;98763.03;;;3.32;76.13
51313;BME280;37397;53.226;10.400;2024-01-15T05:37:48;98763.50;;;3.31;76.07
51313;BME280;37397;53.226;10.400;2024-01-15T05:40:14;98765.66;;;3.36;76.12
51313;BME280;37397;53.226;10.400;2024-01-15T05:42:41;98755.16;;;3.36;76.38
51313;BME280;37397;53.226;10.400;2024-01-15T05:45:08;98750.66;;;3.29;76.21
51313;BME280;37397;53.226;10.400;2024-01-15T05:47:35;98759.59;;;3.28;76.47
51313;BME280;37397;53.226;10.400;2024-01-15T05:50:01;98757.88;;;3.31;76.14
51313;BME280;37397;53.226;10.400;2024-01-15T05:52:29;98761.38;;;3.25;76.23
51313;BME280;37397;53.226;10.400;2024-01-15T05:54:55;98762.84;;;3.36;76.29
51313;BME280;37397;53.226;10.400;2024-01-15T05:57:23;98757.38;;;3.32;76.21
51313;BME280;37397;53.226;10.400;2024-01-15T05:59:49;98753.19;;;3.27;76.27
51313;BME280;37397;53.226;10.400;2024-01-15T06:02:16;98750.66;;;3.29;76.32
51313;BME280;37397;53.226;10.400;2024-01-15T06:04:43;98764.28;;;3.31;76.22
51313;BME280;37397;53.226;10.400;2024-01-15T06:07:09;98765.03;;;3.32;76.33
51313;BME280;37397;53.226;10.400;2024-01-15T06:09:36;98769.91;;;3.31;76.27
51313;BME280;37397;53.226;10.400;2024-01-15T06:12:03;98763.78;;;3.33;76.13
51313;BME280;37397;53.226;10.400;2024-01-15T06:14:29;98748.22;;;3.22;76.14
51313;BME280;37397;53.226;10.400;2024-01-15T06:16:56;98748.13;;;3.32;76.25
51313;BME280;37397;53.226;10.400;2024-01-15T06:19:23;98738.81;;;3.25;76.38
51313;BME280;37397;53.226;10.400;2024-01-15T06:21:50;98750.66;;;3.29;76.22
51313;BME280;37397;53.226;10.400;2024-01-15T06:24:16;98746.66;;;3.21;76.14
51313;BME280;37397;53.226;10.400;2024-01-15T06:26:47;98764.75;;;3.29;76.37
51313;BME280;37397;53.226;10.400;2024-01-15T06:29:14;98770.69;;;3.32;76.21
51313;BME280;37397;53.226;10.400;2024-01-15T06:31:40;98757.25;;;3.26;76.35
51313;BME280;37397;53.226;10.400;2024-01-15T06:34:07;98766.03;;;3.28;76.43
51313;BME280;37397;53.226;10.400;2024-01-15T06:36:34;98765.03;;;3.32;76.24
51313;BME280;37397;53.226;10.400;2024-01-15T06:39:00;98776.31;;;3.32;75.93
51313;BME280;37397;53.226;10.400;2024-01-15T06:41:27;98767.56;;;3.29;76.33
51313;BME280;37397;53.226;10.400;2024-01-15T06:43:53;98781.97;;;3.32;76.25
51313;BME280;37397;53.226;10.400;2024-01-15T06:46:21;98788.41;;;3.32;76.22
51313;BME280;37397;53.226;10.400;2024-01-15T06:48:48;98784.50;;;3.29;76.22
51313;BME280;37397;53.226;10.400;2024-01-15T06:51:15;98780.13;;;3.28;76.27
51313;BME280;37397;53.226;10.400;2024-01-15T06:53:42;98777.31;;;3.28;76.48
51313;BME280;37397;53.226;10.400;2024-01-15T06:56:09;98785.28;;;3.30;76.51
51313;BME280;37397;53.226;10.400;2024-01-15T06:58:35;98783.53;;;3.33;76.52
51313;BME280;37397;53.226;10.400;2024-01-15T07:01:02;98772.94;;;3.27;76.54
51313;BME280;37397;53.226;10.400;2024-01-15T07:03:29;98775.56;;;3.31;76.36
51313;BME280;37397;53.226;10.400;2024-01-15T07:05:55;98779.13;;;3.32;76.52
51313;BME280;37397;53.226;10.400;2024-01-15T07:08:22;98759.50;;;3.22;76.26
51313;BME280;37397;53.226;10.400;2024-01-15T07:10:49;98766.81;;;3.29;76.27
51313;BME280;37397;53.226;10.400;2024-01-15T07:13:15;98770.69;;;3.32;76.47
51313;BME280;37397;53.226;10.400;2024-01-15T07:15:42;98771.69;;;3.28;76.42
51313;BME280;37397;53.226;10.400;2024-01-15T07:18:08;98776.50;;;3.28;76.47
51313;BME280;37397;53.226;10.400;2024-01-15T07:20:35;98785.28;;;3.30;76.58
51313;BME280;37397;53.226;10.400;2024-01-15T07:23:02;98785.28;;;3.30;76.41
51313;BME280;37397;53.226;10.400;2024-01-15T07:25:29;98796.38;;;3.34;76.29
51313;BME280;37397;53.226;10.400;2024-01-15T07:27:55;98794.81;;;3.33;76.50
51313;BME280;37397;53.226;10.400;2024-01-15T07:30:22;98806.09;;;3.33;76.49
51313;BME280;37397;53.226;10.400;2024-01-15T07:32:49;98797.81;;;3.29;76.25
51313;BME280;37397;53.226;10.400;2024-01-15T07:35:16;98805.50;;;3.28;76.34
51313;BME280;37397;53.226;10.400;2024-01-15T07:37:43;98812.69;;;3.29;76.21
51313;BME280;37397;53.226;10.400;2024-01-15T07:40:10;98807.34;;;3.32;76.34
51313;BME280;37397;53.226;10.400;2024-01-15T07:42:37;98804.50;;;3.32;76.17
51313;BME280;37397;53.226;10.400;2024-01-15T07:45:05;98815.78;;;3.32;76.13
51313;BME280;37397;53.226;10.400;2024-01-15T07:47:32;98802.34;;;3.26;76.13
51313;BME280;37397;53.226;10.400;2024-01-15T07:49:58;98826.78;;;3.29;76.35
51313;BME280;37397;53.226;10.400;2024-01-15T07:52:31;98823.19;;;3.29;76.28
51313;BME280;37397;53.226;10.400;2024-01-15T07:54:58;98836.03;;;3.30;76.45
51313;BME280;37397;53.226;10.400;2024-01-15T07:57:27;98825.72;;;3.27;76.17
51313;BME280;37397;53.226;10.400;2024-01-15T07:59:54;98838.34;;;3.32;76.19
51313;BME280;37397;53.226;10.400;2024-01-15T08:02:20;98834.94;;;3.27;76.19
51313;BME280;37397;53.226;10.400;2024-01-15T08:04:48;98808.94;;;3.23;76.25
51313;BME280;37397;53.226;10.400;2024-01-15T08:07:14;98833.69;;;3.28;76.30
51313;BME280;37397;53.226;10.400;2024-01-15T08:09:41;98831.16;;;3.31;76.55
51313;BME280;37397;53.226;10.400;2024-01-15T08:12:08;98837.28;;;3.29;76.34
51313;BME280;37397;53.226;10.400;2024-01-15T08:14:36;98843.69;;;3.29;76.33
51313;BME280;37397;53.226;10.400;2024-01-15T08:17:03;98829.00;;;3.25;76.52
51313;BME280;37397;53.226;10.400;2024-01-15T08:19:30;98832.69;;;3.32;76.40
51313;BME280;37397;53.226;10.400;2024-01-15T08:21:57;98826.78;;;3.29;76.17
51313;BME280;37397;53.226;10.400;2024-01-15T08:24:24;98833.97;;;3.31;76.56
51313;BME280;37397;53.226;10.400;2024-01-15T08:26:50;98830.06;;;3.28;76.49
51313;BME280;37397;53.226;10.400;2024-01-15T08:29:17;98815.41;;;3.24;76.13
51313;BME280;37397;53.226;10.400;2024-01-15T08:31:45;98842.44;;;3.31;76.40
51313;BME280;37397;53.226;10.400;2024-01-15T08:34:12;98833.69;;;3.28;76.19
51313;BME280;37397;53.226;10.400;2024-01-15T08:36:39;98834.44;;;3.29;75.98
51313;BME280;37397;53.226;10.400;2024-01-15T08:39:07;98831.16;;;3.31;76.40
51313;BME280;37397;53.226;10.400;2024-01-15T08:41:35;98836.78;;;3.31;76.24
51313;BME280;37397;53.226;10.400;2024-01-15T08:44:02;98835.22;;;3.29;76.11
51313;BME280;37397;53.226;10.400;2024-01-15T08:46:29;98846.50;;;3.29;76.17
51313;BME280;37397;53.226;10.400;2024-01-15T08:48:55;98846.50;;;3.29;76.19
51313;BME280;37397;53.226;10.400;2024-01-15T08:51:22;98857.00;;;3.29;76.05
51313;BME280;37397;53.226;10.400;2024-01-15T08:53:49;98850.28;;;3.26;76.08
51313;BME280;37397;53.226;10.400;2024-01-15T08:56:16;98844.97;;;3.28;76.15
51313;BME280;37397;53.226;10.400;2024-01-15T08:58:42;98834.66;;;3.25;76.43
51313;BME280;37397;53.226;10.400;2024-01-15T09:01:09;98831.50;;;3.23;76.11
51313;BME280;37397;53.226;10.400;2024-01-15T09:03:36;98841.06;;;3.26;76.16
51313;BME280;37397;53.226;10.400;2024-01-15T09:06:03;98844.97;;;3.28;76.32
51313;BME280;37397;53.226;10.400;2024-01-15T09:08:30;98847.28;;;3.30;76.45
51313;BME280;37397;53.226;10.400;2024-01-15T09:10:57;98851.56;;;3.25;76.49
51313;BME280;37397;53.226;10.400;2024-01-15T09:13:25;98874.69;;;3.29;76.21
51313;BME280;37397;53.226;10.400;2024-01-15T09:15:51;98869.22;;;3.26;76.31
51313;BME280;37397;53.226;10.400;2024-01-15T09:18:33;98872.47;;;3.34;76.57
51313;BME280;37397;53.226;10.400;2024-01-15T09:21:03;98876.25;;;3.31;76.26
51313;BME280;37397;53.226;10.400;2024-01-15T09:23:29;98877.03;;;3.31;76.24
51313;BME280;37397;53.226;10.400;2024-01-15T09:25:56;98871.22;;;3.35;76.34
51313;BME280;37397;53.226;10.400;2024-01-15T09:28:22;98869.03;;;3.29;76.33
51313;BME280;37397;53.226;10.400;2024-01-15T09:30:49;98864.78;;;3.34;76.28
51313;BME280;37397;53.226;10.400;2024-01-15T09:33:16;98868.56;;;3.31;76.47
51313;BME280;37397;53.226;10.400;2024-01-15T09:35:42;98882.19;;;3.33;76.40
51313;BME280;37397;53.226;10.400;2024-01-15T09:38:09;98880.47;;;3.35;76.29
51313;BME280;37397;53.226;10.400;2024-01-15T09:40:38;98889.69;;;3.36;76.17
51313;BME280;37397;53.226;10.400;2024-01-15T09:43:04;98869.66;;;3.34;76.41
51313;BME280;37397;53.226;10.400;2024-01-15T09:45:31;98872.97;;;3.32;76.64
51313;BME280;37397;53.226;10.400;2024-01-15T09:47:58;98866.22;;;3.29;76.46
51313;BME280;37397;53.226;10.400;2024-01-15T09:50:25;98867.63;;;3.34;76.32
51313;BME280;37397;53.226;10.400;2024-01-15T09:52:53;98889.97;;;3.38;76.26
51313;BME280;37397;53.226;10.400;2024-01-15T09:55:21;98884.06;;;3.36;76.51
51313;BME280;37397;53.226;10.400;2024-01-15T09:57:48;98882.47;;;3.35;76.38
51313;BME280;37397;53.226;10.400;2024-01-15T10:00:18;98898.44;;;3.38;76.26
51313;BME280;37397;53.226;10.400;2024-01-15T10:02:45;98886.38;;;3.37;76.61
51313;BME280;37397;53.226;10.400;2024-01-15T10:05:11;98892.31;;;3.39;76.44
51313;BME280;37397;53.226;10.400;2024-01-15T10:07:38;98861.88;;;3.28;76.26
51313;BME280;37397;53.226;10.400;2024-01-15T10:10:06;98887.47;;;3.40;76.64
51313;BME280;37397;53.226;10.400;2024-01-15T10:12:34;98891.84;;;3.41;76.51
51313;BME280;37397;53.226;10.400;2024-01-15T10:15:01;98896.72;;;3.40;76.81
51313;BME280;37397;53.226;10.400;2024-01-15T10:17:28;98882.31;;;3.38;76.63
51313;BME280;37397;53.226;10.400;2024-01-15T10:19:55;98894.94;;;3.43;76.78
51313;BME280;37397;53.226;10.400;2024-01-15T10:22:21;98888.44;;;3.37;76.51
51313;BME280;37397;53.226;10.400;2024-01-15T10:24:48;98904.88;;;3.38;76.43
51313;BME280;37397;53.226;10.400;2024-01-15T10:27:15;98923.00;;;3.46;76.78
51313;BME280;37397;53.226;10.400;2024-01-15T10:29:42;98918.59;;;3.45;76.60
51313;BME280;37397;53.226;10.400;2024-01-15T10:32:09;98930.97;;;3.48;76.55
51313;BME280;37397;53.226;10.400;2024-01-15T10:34:40;98914.22;;;3.44;76.47
51313;BME280;37397;53.226;10.400;2024-01-15T10:37:09;98924.25;;;3.45;76.37
51313;BME280;37397;53.226;10.400;2024-01-15T10:39:36;98931.75;;;3.49;76.51
51313;BME280;37397;53.226;10.400;2024-01-15T10:42:04;98916.75;;;3.42;76.50
51313;BME280;37397;53.226;10.400;2024-01-15T10:44:31;98927.69;;;3.50;76.47
51313;BME280;37397;53.226;10.400;2024-01-15T10:46:58;98925.34;;;3.48;76.30
51313;BME280;37397;53.226;10.400;2024-01-15T10:49:24;98924.38;;;3.51;76.36
51313;BME280;37397;53.226;10.400;2024-01-15T10:51:58;98931.94;;;3.45;76.64
51313;BME280;37397;53.226;10.400;2024-01-15T10:54:26;98929.78;;;3.40;76.31
51313;BME280;37397;53.226;10.400;2024-01-15T10:56:55;98935.22;;;3.43;76.69
51313;BME280;37397;53.226;10.400;2024-01-15T10:59:22;98953.81;;;3.50;76.45
51313;BME280;37397;53.226;10.400;2024-01-15T11:01:50;98938.34;;;3.45;76.54
51313;BME280;37397;53.226;10.400;2024-01-15T11:04:17;98947.88;;;3.48;76.49
51313;BME280;37397;53.226;10.400;2024-01-15T11:06:45;98951.28;;;3.52;76.54
51313;BME280;37397;53.226;10.400;2024-01-15T11:09:13;98946.94;;;3.51;76.49
51313;BME280;37397;53.226;10.400;2024-01-15T11:11:43;98959.47;;;3.50;76.31
51313;BME280;37397;53.226;10.400;2024-01-15T11:14:10;98952.25;;;3.49;76.60
51313;BME280;37397;53.226;10.400;2024-01-15T11:16:56;98956.66;;;3.50;76.33
51313;BME280;37397;53.226;10.400;2024-01-15T11:19:25;98951.00;;;3.50;76.31
51313;BME280;37397;53.226;10.400;2024-01-15T11:21:52;98959.75;;;3.52;76.53
51313;BME280;37397;53.226;10.400;2024-01-15T11:24:34;98952.56;;;3.51;76.30
51313;BME280;37397;53.226;10.400;2024-01-15T11:27:02;98962.00;;;3.48;76.27
51313;BME280;37397;53.226;10.400;2024-01-15T11:29:31;98960.41;;;3.47;76.16
51313;BME280;37397;53.226;10.400;2024-01-15T11:32:08;98952.31;;;3.40;76.14
51313;BME280;37397;53.226;10.400;2024-01-15T11:35:04;98968.69;;;3.51;76.13
51313;BME280;37397;53.226;10.400;2024-01-15T11:40:22;98967.91;;;3.50;75.92
51313;BME280;37397;53.226;10.400;2024-01-15T11:42:49;98963.06;;;3.51;76.25
51313;BME280;37397;53.226;10.400;2024-01-15T11:45:18;98959.00;;;3.52;76.09
51313;BME280;37397;53.226;10.400;2024-01-15T11:48:14;98968.22;;;3.52;76.19
51313;BME280;37397;53.226;10.400;2024-01-15T11:50:49;98965.41;;;3.52;76.32
51313;BME280;37397;53.226;10.400;2024-01-15T11:53:22;98959.75;;;3.52;76.00
51313;BME280;37397;53.226;10.400;2024-01-15T11:55:57;98962.56;;;3.52;76.08
51313;BME280;37397;53.226;10.400;2024-01-15T11:58:24;98959.47;;;3.50;76.18
51313;BME280;37397;53.226;10.400;2024-01-15T12:00:52;98974.19;;;3.54;76.12
51313;BME280;37397;53.226;10.400;2024-01-15T12:03:23;98964.63;;;3.52;76.22
51313;BME280;37397;53.226;10.400;2024-01-15T12:05:53;98961.31;;;3.53;76.22
51313;BME280;37397;53.226;10.400;2024-01-15T12:08:21;98957.75;;;3.53;76.25
51313;BME280;37397;53.226;10.400;2024-01-15T12:10:48;98956.94;;;3.52;76.00
51313;BME280;37397;53.226;10.400;2024-01-15T12:13:15;98959.16;;;3.48;75.96
51313;BME280;37397;53.226;10.400;2024-01-15T12:15:45;98966.97;;;3.53;76.12
51313;BME280;37397;53.226;10.400;2024-01-15T12:18:14;98972.59;;;3.53;75.97
51313;BME280;37397;53.226;10.400;2024-01-15T12:20:43;98976.69;;;3.52;76.16
51313;BME280;37397;53.226;10.400;2024-01-15T12:23:13;98964.81;;;3.48;76.35
51313;BME280;37397;53.226;10.400;2024-01-15T12:25:44;98977.94;;;3.51;76.13
51313;BME280;37397;53.226;10.400;2024-01-15T12:28:11;98958.56;;;3.44;76.01
51313;BME280;37397;53.226;10.400;2024-01-15T12:30:38;98975.13;;;3.51;75.86
51313;BME280;37397;53.226;10.400;2024-01-15T12:33:06;98967.63;;;3.48;76.16
51313;BME280;37397;53.226;10.400;2024-01-15T12:35:34;98955.44;;;3.42;75.97
51313;BME280;37397;53.226;10.400;2024-01-15T12:38:01;98967.91;;;3.50;75.83
51313;BME280;37397;53.226;10.400;2024-01-15T12:40:32;98970.75;;;3.50;75.93
51313;BME280;37397;53.226;10.400;2024-01-15T12:43:00;98966.53;;;3.45;75.89
51313;BME280;37397;53.226;10.400;2024-01-15T12:45:27;98972.00;;;3.49;75.91
51313;BME280;37397;53.226;10.400;2024-01-15T12:47:54;98974.81;;;3.49;75.85
51313;BME280;37397;53.226;10.400;2024-01-15T12:50:24;98966.53;;;3.45;76.04
51313;BME280;37397;53.226;10.400;2024-01-15T12:52:50;98971.41;;;3.45;75.87
51313;BME280;37397;53.226;10.400;2024-01-15T12:55:17;98963.28;;;3.38;75.88
51313;BME280;37397;53.226;10.400;2024-01-15T12:57:44;98977.03;;;3.45;76.01
51313;BME280;37397;53.226;10.400;2024-01-15T13:00:12;98982.97;;;3.47;76.06
51313;BME280;37397;53.226;10.400;2024-01-15T13:02:41;98996.41;;;3.52;76.03
51313;BME280;37397;53.226;10.400;2024-01-15T13:05:10;98990.47;;;3.50;76.11